Time;durP1;ratioP1;P1;durP2;ratioP2;P2;SDS_P1;SDS_P2;PMS_P1;PMS_P2;Temp;Humidity;BMP_temperature;BMP_pressure;BME280_temperature;BME280_humidity;BME280_pressure;Samples;Min_cycle;Max_cycle;Signal;HPM_P1;HPM_P2
2021/07/01 00:00:16;;;;;;;15.23;7.07;;;;;;;20.81;63.90;98234.33;125719;1092;102990;-73
2021/07/01 00:03:04;;;;;;;14.97;6.93;;;;;;;20.77;64.61;98234.93;125705;1092;104132;-73
2021/07/01 00:05:33;;;;;;;18.27;7.33;;;;;;;20.74;63.93;98241.52;125649;1093;103057;-72
2021/07/01 00:08:01;;;;;;;19.10;7.90;;;;;;;20.73;64.31;98236.33;125670;1093;103020;-73
2021/07/01 00:10:29;;;;;;;16.80;7.70;;;;;;;20.70;64.40;98234.84;125618;1093;102960;-74
2021/07/01 00:12:58;;;;;;;16.97;7.80;;;;;;;20.71;64.17;98235.69;126636;1093;100625;-75
2021/07/01 00:15:30;;;;;;;15.20;7.50;;;;;;;20.70;64.42;98242.94;127682;1093;102284;-74
2021/07/01 00:18:02;;;;;;;21.45;8.10;;;;;;;20.70;64.17;98239.42;126515;1093;103449;-73
2021/07/01 00:20:30;;;;;;;13.33;7.43;;;;;;;20.68;64.53;98231.49;125679;1092;103010;-73
2021/07/01 00:23:00;;;;;;;19.17;7.97;;;;;;;20.67;64.31;98229.83;125618;1092;103454;-74
2021/07/01 00:25:30;;;;;;;16.33;7.67;;;;;;;20.66;64.40;98234.41;125678;1091;102997;-74
2021/07/01 00:28:00;;;;;;;14.50;8.05;;;;;;;20.63;64.47;98242.91;125678;1093;103031;-73
2021/07/01 00:30:28;;;;;;;16.40;7.93;;;;;;;20.59;64.50;98244.33;125631;1093;103163;-75
2021/07/01 00:32:58;;;;;;;16.67;7.33;;;;;;;20.57;64.47;98246.39;125645;1093;102983;-74
2021/07/01 00:35:27;;;;;;;15.97;7.80;;;;;;;20.55;63.97;98258.44;125606;1093;102906;-75
2021/07/01 00:37:57;;;;;;;16.57;7.87;;;;;;;20.50;64.42;98253.60;125695;1093;102884;-74
2021/07/01 00:40:27;;;;;;;16.23;7.80;;;;;;;20.47;64.34;98254.84;125684;1092;102998;-73
2021/07/01 00:42:55;;;;;;;24.67;8.33;;;;;;;20.46;64.91;98263.13;125675;1093;103057;-74
2021/07/01 00:45:24;;;;;;;17.50;8.47;;;;;;;20.43;64.30;98264.36;125675;1092;102907;-73
2021/07/01 00:47:52;;;;;;;17.67;9.10;;;;;;;20.43;64.82;98267.06;125651;1093;102929;-71
2021/07/01 00:50:26;;;;;;;14.90;7.80;;;;;;;20.41;64.69;98265.58;125691;1093;102916;-74
2021/07/01 00:52:54;;;;;;;17.67;7.80;;;;;;;20.39;64.77;98265.78;125661;1093;103393;-72
2021/07/01 00:55:23;;;;;;;16.73;8.43;;;;;;;20.37;64.64;98273.24;125635;1092;103547;-73
2021/07/01 00:57:53;;;;;;;19.45;7.90;;;;;;;20.36;64.91;98274.27;125690;1093;102919;-73
2021/07/01 01:02:54;;;;;;;16.38;7.75;;;;;;;20.30;64.74;98266.94;125678;1093;102937;-74
2021/07/01 01:05:25;;;;;;;14.70;7.73;;;;;;;20.29;64.74;98257.17;125658;1093;103004;-75
2021/07/01 01:07:54;;;;;;;14.63;7.57;;;;;;;20.26;64.71;98266.51;125560;1093;102796;-74
2021/07/01 01:10:23;;;;;;;14.93;7.33;;;;;;;20.26;64.84;98258.41;125871;1092;102908;-75
2021/07/01 01:12:51;;;;;;;12.57;7.30;;;;;;;20.28;65.09;98266.30;125655;1093;102932;-76
2021/07/01 01:15:20;;;;;;;14.55;6.75;;;;;;;20.27;65.05;98278.98;125680;1092;102991;-75
2021/07/01 01:17:48;;;;;;;12.17;6.97;;;;;;;20.28;65.13;98285.20;125618;1092;103009;-76
2021/07/01 01:20:17;;;;;;;16.30;7.63;;;;;;;20.26;64.97;98277.31;125632;1092;102997;-74
2021/07/01 01:22:47;;;;;;;16.13;6.93;;;;;;;20.24;65.33;98279.36;125665;1094;102994;-76
2021/07/01 01:25:17;;;;;;;15.17;6.97;;;;;;;20.23;65.02;98281.21;125704;1092;103007;-75
2021/07/01 01:27:46;;;;;;;17.80;8.00;;;;;;;20.23;65.22;98274.99;125724;1093;103590;-76
2021/07/01 01:30:17;;;;;;;14.37;7.37;;;;;;;20.22;65.08;98259.82;125671;1093;103183;-75
2021/07/01 01:32:48;;;;;;;18.67;7.53;;;;;;;20.22;65.65;98267.92;125647;1093;103341;-76
2021/07/01 01:35:16;;;;;;;13.67;6.93;;;;;;;20.20;65.34;98260.00;125736;1093;103061;-75
2021/07/01 01:37:45;;;;;;;14.17;6.80;;;;;;;20.19;65.38;98252.92;125679;1093;102998;-74
2021/07/01 01:40:13;;;;;;;16.97;7.50;;;;;;;20.19;65.49;98249.41;125698;1093;102914;-74
2021/07/01 01:42:41;;;;;;;13.83;7.13;;;;;;;20.18;65.34;98247.73;125687;1093;102912;-74
2021/07/01 01:45:10;;;;;;;12.40;7.10;;;;;;;20.16;64.99;98247.09;125659;1093;103158;-75
2021/07/01 01:47:46;;;;;;;13.93;7.43;;;;;;;20.15;65.34;98250.82;125698;1093;103009;-75
2021/07/01 01:50:17;;;;;;;18.97;8.07;;;;;;;20.14;65.50;98250.00;125707;1093;103016;-75
2021/07/01 01:52:56;;;;;;;16.07;7.57;;;;;;;20.13;65.10;98247.48;125681;1093;103393;-76
2021/07/01 01:55:24;;;;;;;13.83;7.70;;;;;;;20.08;65.44;98256.17;125698;1093;103010;-76
2021/07/01 01:57:55;;;;;;;14.33;7.47;;;;;;;20.07;65.43;98249.09;125621;1093;103057;-74
2021/07/01 02:00:28;;;;;;;12.33;7.05;;;;;;;20.06;65.60;98253.64;125579;1093;103490;-74
2021/07/01 02:02:58;;;;;;;14.70;7.13;;;;;;;20.02;65.55;98248.84;125541;1093;102915;-74
2021/07/01 02:05:29;;;;;;;14.67;7.80;;;;;;;19.97;65.36;98245.88;126093;1093;102926;-75
2021/07/01 02:07:59;;;;;;;16.63;8.03;;;;;;;19.95;65.81;98240.69;125692;1093;102998;-74
2021/07/01 02:10:32;;;;;;;13.50;7.30;;;;;;;19.94;65.54;98236.31;125662;1093;103044;-74
2021/07/01 02:13:04;;;;;;;16.20;7.27;;;;;;;19.93;65.79;98251.66;125921;1093;102991;-75
2021/07/01 02:15:32;;;;;;;12.03;7.20;;;;;;;19.94;65.70;98249.81;125627;1093;102981;-74
2021/07/01 02:18:00;;;;;;;14.27;7.07;;;;;;;19.93;65.88;98251.66;125627;1092;103428;-74
2021/07/01 02:20:29;;;;;;;16.30;7.53;;;;;;;19.91;65.48;98237.52;127450;1092;101507;-75
2021/07/01 02:22:57;;;;;;;15.03;7.73;;;;;;;19.89;65.79;98236.88;127654;1093;100781;-75
2021/07/01 02:25:26;;;;;;;14.13;7.57;;;;;;;19.88;65.60;98227.11;126138;1093;102935;-76
2021/07/01 02:27:54;;;;;;;15.60;7.90;;;;;;;19.88;65.55;98223.55;125659;1092;103029;-75
2021/07/01 02:30:23;;;;;;;15.90;7.60;;;;;;;19.88;65.81;98235.20;125719;1093;103053;-76
2021/07/01 02:32:51;;;;;;;14.70;7.80;;;;;;;19.87;65.85;98236.20;125586;1093;102999;-76
2021/07/01 02:35:33;;;;;;;14.03;7.60;;;;;;;19.84;65.59;98246.55;125583;1092;102989;-74
2021/07/01 02:38:01;;;;;;;15.87;8.10;;;;;;;19.83;65.59;98245.70;125881;1092;102981;-75
2021/07/01 02:40:32;;;;;;;16.20;7.20;;;;;;;19.81;65.90;98242.36;125646;1093;102932;-75
2021/07/01 02:43:00;;;;;;;15.90;7.80;;;;;;;19.79;66.43;98233.62;125716;1092;102927;-76
2021/07/01 02:45:28;;;;;;;13.07;6.80;;;;;;;19.81;65.80;98233.44;125721;1093;103164;-75
2021/07/01 02:47:57;;;;;;;15.37;7.50;;;;;;;19.83;65.94;98236.78;125684;1093;103173;-75
2021/07/01 02:50:28;;;;;;;17.17;7.67;;;;;;;19.83;65.72;98236.78;125738;1093;102929;-74
2021/07/01 02:52:57;;;;;;;13.53;7.30;;;;;;;19.83;66.10;98236.78;125676;1093;102943;-75
2021/07/01 02:55:26;;;;;;;13.75;7.50;;;;;;;19.81;65.75;98234.27;125736;1093;102991;-74
2021/07/01 02:57:54;;;;;;;13.77;7.50;;;;;;;19.80;65.86;98227.20;125734;1092;102987;-74
2021/07/01 03:00:23;;;;;;;14.53;7.50;;;;;;;19.78;65.94;98223.85;125729;1092;103125;-76
2021/07/01 03:02:51;;;;;;;15.40;7.93;;;;;;;19.78;65.93;98221.16;125743;1093;102930;-76
2021/07/01 03:05:20;;;;;;;16.53;7.97;;;;;;;19.81;66.30;98206.46;125727;1092;102916;-76
2021/07/01 03:07:48;;;;;;;16.27;7.87;;;;;;;19.81;66.22;98211.86;125716;1093;102938;-75
2021/07/01 03:10:17;;;;;;;18.00;7.90;;;;;;;19.76;66.01;98202.47;125714;1092;102935;-76
2021/07/01 03:12:45;;;;;;;14.33;8.10;;;;;;;19.74;66.14;98212.63;125670;1093;103096;-76
2021/07/01 03:15:15;;;;;;;16.13;8.60;;;;;;;19.71;66.05;98209.48;125710;1093;102942;-75
2021/07/01 03:17:45;;;;;;;18.37;9.13;;;;;;;19.70;66.06;98214.03;125678;1093;103029;-76
2021/07/01 03:20:14;;;;;;;17.97;8.60;;;;;;;19.68;66.15;98218.78;125722;1093;103094;-74
2021/07/01 03:22:44;;;;;;;18.97;8.80;;;;;;;19.66;66.01;98212.73;125738;1093;102967;-75
2021/07/01 03:25:12;;;;;;;15.77;7.57;;;;;;;19.68;66.44;98215.27;125652;1091;103003;-75
2021/07/01 03:27:41;;;;;;;17.80;8.83;;;;;;;19.64;66.10;98217.48;125665;1092;103044;-74
2021/07/01 03:30:11;;;;;;;15.97;8.60;;;;;;;19.63;66.28;98213.12;125591;1093;103036;-74
2021/07/01 03:32:39;;;;;;;15.20;7.90;;;;;;;19.63;66.71;98221.21;125604;1093;103428;-73
2021/07/01 03:35:10;;;;;;;15.30;8.10;;;;;;;19.62;66.70;98227.63;125605;1093;104640;-73
2021/07/01 03:37:38;;;;;;;16.33;7.90;;;;;;;19.62;66.80;98241.97;125677;1093;103040;-75
2021/07/01 03:40:11;;;;;;;13.90;7.77;;;;;;;19.63;66.59;98240.09;125702;1093;102939;-75
2021/07/01 03:42:39;;;;;;;15.67;7.67;;;;;;;19.60;66.80;98244.02;125665;1093;103083;-74
2021/07/01 03:45:10;;;;;;;15.93;7.90;;;;;;;19.62;66.23;98257.30;125688;1093;103483;-75
2021/07/01 03:47:38;;;;;;;15.70;7.73;;;;;;;19.62;66.38;98255.45;125687;1093;103012;-75
2021/07/01 03:50:08;;;;;;;16.37;7.87;;;;;;;19.62;66.58;98263.55;125660;1093;103031;-75
2021/07/01 03:52:37;;;;;;;14.40;7.90;;;;;;;19.62;66.63;98260.00;125715;1093;102928;-75
2021/07/01 03:55:07;;;;;;;17.40;8.50;;;;;;;19.61;66.70;98264.58;125706;1093;102934;-75
2021/07/01 03:57:36;;;;;;;17.30;8.70;;;;;;;19.62;66.55;98265.39;125729;1092;103034;-75
2021/07/01 04:00:10;;;;;;;17.93;8.70;;;;;;;19.59;66.81;98268.47;125706;1093;103009;-76
2021/07/01 04:02:38;;;;;;;14.87;8.57;;;;;;;19.56;66.74;98267.00;125687;1091;102983;-74
2021/07/01 04:05:09;;;;;;;19.00;8.20;;;;;;;19.56;66.68;98271.58;125739;1093;103038;-75
2021/07/01 04:07:40;;;;;;;16.70;8.50;;;;;;;19.56;66.81;98277.79;125707;1093;103017;-74
2021/07/01 04:10:14;;;;;;;14.07;7.70;;;;;;;19.57;66.87;98276.77;125734;1093;103024;-74
2021/07/01 04:12:44;;;;;;;19.55;8.75;;;;;;;19.55;66.77;98276.12;125712;1093;102914;-74
2021/07/01 04:15:13;;;;;;;16.40;7.80;;;;;;;19.56;66.83;98272.39;125678;1093;103036;-74
2021/07/01 04:17:43;;;;;;;16.87;8.00;;;;;;;19.56;66.98;98272.39;125675;1093;102948;-74
2021/07/01 04:20:13;;;;;;;12.97;7.57;;;;;;;19.56;66.99;98269.70;125624;1093;102926;-74
2021/07/01 04:22:43;;;;;;;14.90;7.93;;;;;;;19.57;66.67;98265.13;125708;1093;102937;-74
2021/07/01 04:25:13;;;;;;;15.70;8.97;;;;;;;19.61;67.24;98263.72;125705;1092;102986;-74
2021/07/01 04:27:41;;;;;;;18.83;8.70;;;;;;;19.58;66.78;98256.86;125651;1093;103221;-74
2021/07/01 04:30:11;;;;;;;14.57;7.67;;;;;;;19.57;66.94;98254.33;125588;1093;102945;-74
2021/07/01 04:32:40;;;;;;;16.27;8.70;;;;;;;19.53;66.74;98248.50;126237;1092;103007;-73
2021/07/01 04:35:10;;;;;;;16.40;8.90;;;;;;;19.53;66.93;98253.07;125635;1093;103425;-73
2021/07/01 04:37:38;;;;;;;20.80;8.87;;;;;;;19.49;66.87;98256.14;125606;1093;103187;-74
2021/07/01 04:40:10;;;;;;;17.60;8.67;;;;;;;19.49;67.25;98257.98;125545;1092;103030;-73
2021/07/01 04:42:40;;;;;;;18.93;9.23;;;;;;;19.47;67.14;98251.95;125677;1093;102942;-74
2021/07/01 04:45:11;;;;;;;20.10;8.80;;;;;;;19.44;66.93;98239.69;125665;1093;103000;-74
2021/07/01 04:47:41;;;;;;;15.97;8.17;;;;;;;19.39;66.94;98238.56;125696;1093;103033;-75
2021/07/01 04:50:11;;;;;;;21.80;9.97;;;;;;;19.35;66.94;98235.42;125691;1093;103038;-71
2021/07/01 04:52:40;;;;;;;17.27;9.00;;;;;;;19.34;67.18;98228.36;125681;1093;103381;-70
2021/07/01 04:55:09;;;;;;;15.27;8.40;;;;;;;19.31;67.18;98216.11;125678;1093;103002;-71
2021/07/01 04:57:37;;;;;;;20.13;8.80;;;;;;;19.27;67.41;98216.66;125665;1093;103193;-69
2021/07/01 05:00:08;;;;;;;17.10;8.43;;;;;;;19.22;67.14;98217.23;125605;1093;103054;-71
2021/07/01 05:02:36;;;;;;;18.40;9.23;;;;;;;19.15;67.15;98206.38;125645;1093;104680;-72
2021/07/01 05:05:06;;;;;;;15.90;8.67;;;;;;;19.09;67.22;98214.36;125763;1092;103077;-71
2021/07/01 05:07:46;;;;;;;18.80;9.37;;;;;;;19.01;67.00;98212.61;125681;1092;102968;-72
2021/07/01 05:10:15;;;;;;;20.37;9.50;;;;;;;18.97;67.12;98225.60;125555;1093;103021;-72
2021/07/01 05:12:43;;;;;;;27.67;9.17;;;;;;;18.95;67.57;98222.23;125645;1093;102903;-72
2021/07/01 05:15:12;;;;;;;20.43;10.03;;;;;;;18.96;67.48;98226.63;125663;1093;103364;-71
2021/07/01 05:17:41;;;;;;;17.70;9.80;;;;;;;18.96;67.48;98225.80;125641;1094;103018;-72
2021/07/01 05:20:12;;;;;;;18.57;9.87;;;;;;;18.96;67.67;98226.63;125665;1093;103087;-72
2021/07/01 05:22:41;;;;;;;19.40;9.93;;;;;;;18.98;67.81;98224.58;125680;1093;102950;-72
2021/07/01 05:25:11;;;;;;;22.13;10.17;;;;;;;19.00;67.57;98230.63;125693;1093;102932;-71
2021/07/01 05:27:41;;;;;;;20.87;9.93;;;;;;;19.03;68.08;98232.13;125686;1093;102994;-72
2021/07/01 05:30:12;;;;;;;19.30;9.73;;;;;;;19.06;67.98;98236.30;125690;1093;103154;-72
2021/07/01 05:32:42;;;;;;;18.87;9.70;;;;;;;19.11;68.15;98223.09;125687;1093;102948;-72
2021/07/01 05:35:12;;;;;;;19.27;10.30;;;;;;;19.14;67.82;98234.36;125697;1093;103668;-71
2021/07/01 05:37:40;;;;;;;20.40;11.00;;;;;;;19.18;68.19;98241.02;125669;1093;103134;-71
2021/07/01 05:40:09;;;;;;;19.47;9.87;;;;;;;19.22;68.01;98246.89;125680;1093;103074;-72
2021/07/01 05:42:37;;;;;;;22.10;11.70;;;;;;;19.24;68.13;98252.08;125687;1093;102937;-72
2021/07/01 05:45:08;;;;;;;19.63;10.57;;;;;;;19.22;67.78;98263.06;125701;1093;102994;-71
2021/07/01 05:47:38;;;;;;;19.60;10.67;;;;;;;19.20;68.18;98273.19;125663;1093;103083;-72
2021/07/01 05:50:12;;;;;;;20.43;10.87;;;;;;;19.21;68.17;98274.02;125636;1093;102974;-73
2021/07/01 05:52:45;;;;;;;18.57;9.50;;;;;;;19.23;68.32;98277.36;125697;1093;103068;-71
2021/07/01 05:55:14;;;;;;;18.00;9.80;;;;;;;19.24;68.07;98281.73;125657;1093;103668;-71
2021/07/01 05:57:43;;;;;;;18.73;9.73;;;;;;;19.26;68.63;98282.38;125703;1093;103009;-72
2021/07/01 06:00:14;;;;;;;19.47;9.80;;;;;;;19.29;68.25;98280.16;125692;1093;103007;-72
2021/07/01 06:02:42;;;;;;;20.13;10.37;;;;;;;19.33;68.17;98275.22;125690;1093;102999;-71
2021/07/01 06:05:11;;;;;;;16.77;9.50;;;;;;;19.36;68.35;98279.42;125686;1093;102932;-73
2021/07/01 06:07:50;;;;;;;19.47;10.17;;;;;;;19.40;68.42;98276.14;125671;1092;103048;-72
2021/07/01 06:10:20;;;;;;;18.80;10.70;;;;;;;19.43;68.23;98280.31;125708;1093;103332;-72
2021/07/01 06:12:48;;;;;;;20.50;10.07;;;;;;;19.46;68.52;98279.94;125693;1092;103029;-72
2021/07/01 06:15:17;;;;;;;19.77;10.63;;;;;;;19.48;68.37;98275.19;125707;1092;103100;-73
2021/07/01 06:17:49;;;;;;;17.43;9.83;;;;;;;19.51;68.41;98269.42;125703;1092;103073;-72
2021/07/01 06:20:19;;;;;;;18.57;9.47;;;;;;;19.52;68.53;98263.00;125666;1092;103081;-72
2021/07/01 06:22:50;;;;;;;17.37;8.83;;;;;;;19.57;68.75;98257.03;125693;1093;103065;-72
2021/07/01 06:25:20;;;;;;;17.57;9.67;;;;;;;19.58;68.50;98259.56;125646;1093;102943;-72
2021/07/01 06:27:51;;;;;;;19.47;9.63;;;;;;;19.65;68.55;98259.63;125711;1093;103158;-71
2021/07/01 06:32:53;;;;;;;22.80;13.07;;;;;;;19.77;68.34;98262.65;125685;1093;103137;-73
2021/07/01 06:35:25;;;;;;;20.40;10.63;;;;;;;19.82;68.67;98257.52;125714;1093;102933;-71
2021/07/01 06:37:59;;;;;;;17.53;9.23;;;;;;;19.88;68.62;98255.94;125638;1093;102944;-72
2021/07/01 06:40:32;;;;;;;18.50;10.10;;;;;;;19.92;68.65;98258.08;125701;1092;102916;-73
2021/07/01 06:43:03;;;;;;;17.95;8.88;;;;;;;19.97;68.60;98254.80;125676;1093;104470;-72
2021/07/01 06:45:34;;;;;;;14.97;8.40;;;;;;;20.05;68.24;98254.67;125665;1093;102981;-72
2021/07/01 06:48:04;;;;;;;16.57;8.87;;;;;;;20.12;68.62;98257.45;125708;1092;103007;-74
2021/07/01 06:50:33;;;;;;;18.27;8.83;;;;;;;20.17;68.91;98264.97;125723;1093;103004;-71
2021/07/01 06:53:03;;;;;;;17.10;9.20;;;;;;;20.17;68.58;98265.81;125743;1093;103016;-73
2021/07/01 06:55:32;;;;;;;17.40;8.90;;;;;;;20.17;68.26;98265.81;125664;1093;102998;-73
2021/07/01 06:58:06;;;;;;;17.13;8.87;;;;;;;20.15;68.66;98258.92;125643;1093;103051;-72
2021/07/01 07:00:35;;;;;;;18.17;9.57;;;;;;;20.13;68.57;98253.73;125715;1092;103009;-72
2021/07/01 07:03:05;;;;;;;15.13;8.63;;;;;;;20.10;68.50;98250.56;125668;1093;103010;-71
2021/07/01 07:05:37;;;;;;;15.20;7.60;;;;;;;20.09;68.51;98247.05;125685;1093;102911;-72
2021/07/01 07:08:09;;;;;;;16.30;8.00;;;;;;;20.10;68.63;98239.77;125691;1093;102997;-73
2021/07/01 07:10:40;;;;;;;15.13;8.13;;;;;;;20.11;68.71;98246.83;125666;1093;102927;-73
2021/07/01 07:13:13;;;;;;;16.65;7.83;;;;;;;20.10;68.43;98237.06;125695;1093;103058;-72
2021/07/01 07:15:45;;;;;;;23.90;13.20;;;;;;;20.07;68.78;98231.02;125699;1093;103543;-72
2021/07/01 07:18:24;;;;;;;27.67;17.00;;;;;;;20.08;68.58;98229.17;125704;1093;102913;-72
2021/07/01 07:21:04;;;;;;;19.47;9.20;;;;;;;20.07;68.46;98224.80;125671;1092;102936;-74
2021/07/01 07:23:36;;;;;;;18.77;8.80;;;;;;;20.08;68.71;98224.59;125704;1092;103028;-72
2021/07/01 07:26:17;;;;;;;17.20;8.60;;;;;;;20.12;68.61;98235.86;125704;1093;103028;-72
2021/07/01 07:28:52;;;;;;;17.23;8.90;;;;;;;20.14;68.59;98241.05;125654;1093;103013;-72
2021/07/01 07:31:28;;;;;;;16.73;8.70;;;;;;;20.16;68.42;98245.25;125727;1093;102909;-74
2021/07/01 07:34:04;;;;;;;17.40;8.37;;;;;;;20.14;68.51;98254.55;125672;1093;103124;-73
2021/07/01 07:36:35;;;;;;;16.47;8.47;;;;;;;20.06;68.61;98242.03;125627;1093;103057;-73
2021/07/01 07:39:07;;;;;;;16.57;8.37;;;;;;;20.00;68.81;98256.29;125695;1093;103009;-72
2021/07/01 07:41:36;;;;;;;17.17;8.77;;;;;;;19.88;68.73;98262.19;125644;1093;103020;-73
2021/07/01 07:44:05;;;;;;;17.23;8.17;;;;;;;19.83;68.35;98269.98;125723;1093;102911;-72
2021/07/01 07:46:34;;;;;;;15.20;8.20;;;;;;;19.75;68.39;98262.86;125683;1093;102983;-72
2021/07/01 07:49:06;;;;;;;15.70;7.83;;;;;;;19.69;68.68;98279.80;125681;1093;102996;-72
2021/07/01 07:51:37;;;;;;;15.90;8.63;;;;;;;19.67;68.44;98279.16;125737;1093;103062;-71
2021/07/01 07:54:09;;;;;;;15.90;8.37;;;;;;;19.66;68.75;98296.36;125697;1093;103015;-73
2021/07/01 07:56:39;;;;;;;17.33;9.27;;;;;;;19.63;69.30;98313.77;125710;1096;102921;-73
2021/07/01 07:59:10;;;;;;;16.80;8.23;;;;;;;19.62;68.76;98317.50;125709;1093;102971;-72
2021/07/01 08:01:41;;;;;;;20.73;9.67;;;;;;;19.53;68.46;98329.41;125684;1093;103115;-73
2021/07/01 08:04:18;;;;;;;19.85;8.95;;;;;;;19.40;68.63;98321.98;125685;1093;103064;-73
2021/07/01 08:06:50;;;;;;;16.33;8.50;;;;;;;19.31;68.63;98315.86;125687;1093;103425;-71
2021/07/01 08:09:25;;;;;;;19.47;9.67;;;;;;;19.32;68.82;98300.51;125764;1093;102994;-72
2021/07/01 08:11:58;;;;;;;18.97;9.27;;;;;;;19.32;68.98;98298.66;125683;1093;102910;-71
2021/07/01 08:14:26;;;;;;;18.10;9.17;;;;;;;19.34;69.09;98298.46;125662;1093;103026;-72
2021/07/01 08:16:56;;;;;;;20.53;10.53;;;;;;;19.37;68.66;98305.33;125705;1093;103060;-72
2021/07/01 08:19:25;;;;;;;22.30;10.50;;;;;;;19.40;69.13;98305.81;125673;1092;103031;-71
2021/07/01 08:21:53;;;;;;;21.10;10.77;;;;;;;19.42;69.12;98295.67;125708;1093;103546;-70
2021/07/01 08:24:25;;;;;;;22.50;11.03;;;;;;;19.43;69.07;98302.73;125698;1093;102989;-71
2021/07/01 08:26:58;;;;;;;21.07;10.57;;;;;;;19.45;69.34;98321.41;125676;1093;102909;-72
2021/07/01 08:29:27;;;;;;;23.70;11.53;;;;;;;19.46;69.33;98333.88;125731;1093;103031;-72
2021/07/01 08:32:06;;;;;;;19.27;10.10;;;;;;;19.44;69.05;98333.22;125720;1092;103037;-72
2021/07/01 08:34:38;;;;;;;20.80;10.97;;;;;;;19.38;69.32;98336.66;125705;1092;103035;-72
2021/07/01 08:37:06;;;;;;;18.20;8.97;;;;;;;19.31;69.11;98336.58;125715;1093;102977;-72
2021/07/01 08:39:37;;;;;;;17.73;9.13;;;;;;;19.26;69.24;98344.39;125669;1093;102916;-73
2021/07/01 08:42:08;;;;;;;18.40;9.93;;;;;;;19.20;69.26;98351.37;125739;1093;103220;-72
2021/07/01 08:44:44;;;;;;;19.80;9.40;;;;;;;19.10;68.91;98348.95;125682;1092;103061;-73
2021/07/01 08:47:18;;;;;;;17.40;8.57;;;;;;;19.06;69.49;98354.88;125701;1093;103501;-72
2021/07/01 08:49:55;;;;;;;17.80;9.53;;;;;;;19.00;69.48;98353.77;125699;1093;103003;-73
2021/07/01 08:52:34;;;;;;;19.70;9.43;;;;;;;18.93;68.95;98356.33;125652;1094;102990;-71
2021/07/01 08:55:30;;;;;;;18.00;9.17;;;;;;;18.83;69.14;98375.43;125732;1093;103872;-71
2021/07/01 08:58:00;;;;;;;18.37;10.23;;;;;;;18.74;69.23;98387.32;125668;1092;102944;-72
2021/07/01 09:00:36;;;;;;;18.80;9.77;;;;;;;18.70;69.56;98408.38;125695;1093;102913;-71
2021/07/01 09:03:09;;;;;;;16.33;7.93;;;;;;;18.64;69.50;98409.09;125711;1093;103040;-71
2021/07/01 09:05:39;;;;;;;13.10;6.80;;;;;;;18.56;69.74;98419.91;125575;1093;102989;-72
2021/07/01 09:08:13;;;;;;;12.73;6.10;;;;;;;18.47;69.25;98426.40;125685;1093;103049;-72
2021/07/01 09:10:54;;;;;;;12.73;5.80;;;;;;;18.35;69.76;98425.94;125722;1093;102991;-71
2021/07/01 09:13:27;;;;;;;12.43;5.43;;;;;;;18.19;69.27;98437.64;125678;1093;103010;-71
2021/07/01 09:15:58;;;;;;;6.97;3.80;;;;;;;18.10;69.83;98442.23;125724;1093;102934;-72
2021/07/01 09:18:29;;;;;;;8.40;4.50;;;;;;;17.97;69.51;98454.36;125677;1093;102997;-73
2021/07/01 09:21:03;;;;;;;6.97;3.90;;;;;;;17.88;69.42;98450.05;125715;1093;103004;-73
2021/07/01 09:23:32;;;;;;;8.47;3.60;;;;;;;17.76;69.57;98448.73;125655;1093;103061;-72
2021/07/01 09:26:04;;;;;;;8.23;3.80;;;;;;;17.64;69.70;98450.97;125721;1092;102921;-72
2021/07/01 09:28:33;;;;;;;7.80;4.00;;;;;;;17.60;70.21;98455.83;125682;1093;103422;-71
2021/07/01 09:31:04;;;;;;;6.57;3.83;;;;;;;17.56;69.77;98455.34;125634;1093;103055;-70
2021/07/01 09:33:35;;;;;;;5.67;3.30;;;;;;;17.51;69.94;98457.71;125745;1093;103090;-71
2021/07/01 09:36:04;;;;;;;4.20;3.07;;;;;;;17.43;70.03;98446.14;125724;1093;103015;-72
2021/07/01 09:38:35;;;;;;;6.23;3.10;;;;;;;17.34;70.24;98430.02;125732;1092;102929;-72
2021/07/01 09:41:04;;;;;;;7.70;4.00;;;;;;;17.30;70.21;98433.23;125679;1094;103000;-71
2021/07/01 09:43:32;;;;;;;8.45;4.30;;;;;;;17.27;70.26;98420.96;125634;1093;103023;-71
2021/07/01 09:46:01;;;;;;;5.23;3.83;;;;;;;17.28;70.22;98417.27;125658;1093;103006;-72
2021/07/01 09:48:35;;;;;;;7.63;4.00;;;;;;;17.27;70.42;98407.52;125713;1093;102939;-71
2021/07/01 09:51:04;;;;;;;6.93;4.27;;;;;;;17.27;70.18;98394.09;125700;1092;102930;-71
2021/07/01 09:53:38;;;;;;;9.20;4.90;;;;;;;17.30;70.47;98376.80;125628;1093;103396;-72
2021/07/01 09:56:12;;;;;;;8.17;4.10;;;;;;;17.32;70.44;98364.84;125633;1093;103058;-71
2021/07/01 09:58:50;;;;;;;7.37;3.57;;;;;;;17.34;70.57;98337.78;125668;1093;103006;-71
2021/07/01 10:01:28;;;;;;;7.53;3.90;;;;;;;17.37;70.13;98329.38;125692;1092;102932;-71
2021/07/01 10:04:00;;;;;;;7.50;4.10;;;;;;;17.39;70.58;98314.77;125744;1092;103028;-71
2021/07/01 10:06:30;;;;;;;8.00;4.27;;;;;;;17.45;70.67;98321.28;125678;1093;103044;-72
2021/07/01 10:09:01;;;;;;;5.50;3.53;;;;;;;17.50;70.59;98336.91;125667;1093;103094;-72
2021/07/01 10:11:33;;;;;;;7.23;3.70;;;;;;;17.55;70.13;98339.89;125689;1093;103042;-71
2021/07/01 10:14:10;;;;;;;5.75;3.38;;;;;;;17.61;70.37;98338.38;125666;1093;103004;-72
2021/07/01 10:16:39;;;;;;;8.50;3.87;;;;;;;17.66;70.27;98336.00;125639;1093;102967;-71
2021/07/01 10:19:18;;;;;;;7.20;4.47;;;;;;;17.70;70.30;98335.46;125634;1093;103000;-71
2021/07/01 10:22:04;;;;;;;5.57;3.90;;;;;;;17.75;70.47;98342.98;125605;1092;103021;-72
2021/07/01 10:24:48;;;;;;;6.33;4.17;;;;;;;17.81;70.73;98341.47;125676;1093;103339;-71
2021/07/01 10:27:41;;;;;;;7.47;4.70;;;;;;;17.88;70.49;98330.83;125628;1092;102912;-72
2021/07/01 10:30:13;;;;;;;6.98;4.53;;;;;;;17.92;70.78;98326.77;125732;1093;102941;-71
2021/07/01 10:32:45;;;;;;;8.73;4.50;;;;;;;17.97;70.34;98340.53;125664;1093;102940;-72
2021/07/01 10:35:33;;;;;;;8.83;5.13;;;;;;;18.03;70.67;98353.31;125637;1093;103512;-71
2021/07/01 10:38:05;;;;;;;8.90;5.10;;;;;;;18.11;70.68;98365.88;125635;1093;103492;-72
2021/07/01 10:40:40;;;;;;;8.20;5.30;;;;;;;18.19;70.73;98364.98;125674;1093;102936;-71
2021/07/01 10:43:14;;;;;;;9.80;4.93;;;;;;;18.25;70.47;98354.35;125698;1092;103059;-71
2021/07/01 10:45:59;;;;;;;9.40;5.60;;;;;;;18.34;70.49;98352.44;125646;1093;103132;-73
2021/07/01 10:48:29;;;;;;;9.75;5.40;;;;;;;18.48;70.80;98356.20;125619;1093;102943;-72
2021/07/01 10:51:12;;;;;;;11.57;5.87;;;;;;;18.62;70.62;98370.72;125681;1093;102913;-71
2021/07/01 10:53:46;;;;;;;11.30;5.50;;;;;;;18.76;70.59;98374.47;125712;1093;103007;-71
2021/07/01 10:56:15;;;;;;;7.80;5.27;;;;;;;18.92;70.86;98378.05;125729;1093;102935;-71
2021/07/01 10:58:54;;;;;;;9.75;5.60;;;;;;;19.04;70.69;98384.72;125682;1091;102978;-69
2021/07/01 11:01:33;;;;;;;11.57;5.77;;;;;;;19.19;70.62;98384.73;125610;1092;102930;-72
2021/07/01 11:04:17;;;;;;;7.43;5.00;;;;;;;19.37;70.61;98386.22;125513;1093;102990;-74
2021/07/01 11:07:06;;;;;;;9.67;5.27;;;;;;;19.56;70.87;98382.16;125579;1093;102997;-71
2021/07/01 11:09:43;;;;;;;9.30;4.67;;;;;;;19.72;70.37;98381.13;125655;1092;102935;-72
2021/07/01 11:12:25;;;;;;;10.03;5.00;;;;;;;19.86;70.79;98380.24;125637;1093;102971;-71
2021/07/01 11:14:56;;;;;;;7.73;4.80;;;;;;;19.99;70.65;98376.08;125678;1092;103062;-72
2021/07/01 11:17:29;;;;;;;8.43;4.70;;;;;;;20.07;71.25;98375.97;125669;1092;102935;-73
2021/07/01 11:20:23;;;;;;;6.00;4.47;;;;;;;20.21;70.76;98375.06;125627;1093;102934;-72
2021/07/01 11:22:56;;;;;;;8.57;4.87;;;;;;;20.34;71.00;98387.05;125646;1093;102999;-72
2021/07/01 11:25:28;;;;;;;7.30;4.00;;;;;;;20.48;70.65;98385.31;125570;1092;103000;-72
2021/07/01 11:28:18;;;;;;;5.63;3.63;;;;;;;20.58;70.96;98387.72;125679;1093;103090;-74
2021/07/01 11:30:57;;;;;;;8.80;4.20;;;;;;;20.61;70.36;98381.91;125686;1093;103034;-76
2021/07/01 11:33:31;;;;;;;9.73;4.13;;;;;;;20.71;70.71;98384.30;125635;1093;102976;-72